Time;durP1;ratioP1;P1;durP2;ratioP2;P2;SDS_P1;SDS_P2;PMS_P1;PMS_P2;Temp;Humidity;BMP_temperature;BMP_pressure;BME280_temperature;BME280_humidity;BME280_pressure;Samples;Min_cycle;Max_cycle;Signal;HPM_P1;HPM_P2
2021/07/06 00:00:45;;;;;;;6.60;0.90;;;;;;;29.12;37.41;96100.38;4966901;28;20421;-34
2021/07/06 00:03:10;;;;;;;3.33;0.90;;;;;;;29.15;37.07;96110.69;4964982;28;20649;-34
2021/07/06 00:05:36;;;;;;;2.15;1.08;;;;;;;29.16;37.06;96112.38;4970959;28;20026;-32
2021/07/06 00:08:01;;;;;;;4.72;0.80;;;;;;;29.16;37.46;96106.22;4969252;28;20029;-37
2021/07/06 00:10:26;;;;;;;1.17;0.70;;;;;;;29.15;37.28;96110.69;4969719;28;20037;-35
2021/07/06 00:12:52;;;;;;;3.42;0.98;;;;;;;29.16;37.27;96112.38;4961322;28;20034;-33
2021/07/06 00:16:16;;;;;;;2.95;0.60;;;;;;;-148.56;100.00;61375.16;4959656;28;20049;-35
2021/07/06 00:19:40;;;;;;;1.38;0.60;;;;;;;-148.56;100.00;61375.16;4971143;28;20038;-33
2021/07/06 00:23:04;;;;;;;1.23;0.60;;;;;;;-148.56;100.00;61375.16;4960013;28;20041;-29
2021/07/06 00:26:28;;;;;;;1.60;0.80;;;;;;;-148.56;100.00;61375.16;4967147;28;20065;-33
2021/07/06 00:29:52;;;;;;;2.78;1.25;;;;;;;-148.56;100.00;61375.16;4973097;28;20030;-32
2021/07/06 00:33:16;;;;;;;0.85;0.65;;;;;;;-148.56;100.00;61375.16;4957256;28;20322;-32
2021/07/06 00:36:40;;;;;;;0.95;0.70;;;;;;;-148.56;100.00;61375.16;4967390;28;20030;-33
2021/07/06 00:40:04;;;;;;;1.73;0.85;;;;;;;-148.56;100.00;61375.16;4967703;28;20069;-34
2021/07/06 00:43:28;;;;;;;2.38;0.70;;;;;;;-148.56;100.00;61375.16;4979087;28;20096;-36
2021/07/06 00:46:53;;;;;;;2.38;0.88;;;;;;;-148.56;100.00;61375.16;4965998;28;20069;-35
2021/07/06 00:49:18;;;;;;;2.63;0.85;;;;;;;29.17;37.37;96077.09;4965633;28;20030;-34
2021/07/06 00:51:43;;;;;;;0.73;0.60;;;;;;;29.15;37.38;96079.03;4968114;28;20049;-34
2021/07/06 00:55:08;;;;;;;1.83;0.70;;;;;;;-148.56;100.00;61375.16;4965893;28;20100;-33
2021/07/06 00:58:32;;;;;;;3.28;0.85;;;;;;;-148.56;100.00;61375.16;4969796;28;20049;-33
2021/07/06 01:01:56;;;;;;;1.65;0.63;;;;;;;-148.56;100.00;61375.16;4965240;28;20153;-36
2021/07/06 01:05:21;;;;;;;2.35;0.70;;;;;;;-148.56;100.00;61375.16;4970792;28;20065;-29
2021/07/06 01:08:45;;;;;;;4.25;0.82;;;;;;;-148.56;100.00;61375.16;4962279;28;20034;-32
2021/07/06 01:12:10;;;;;;;3.83;0.90;;;;;;;-148.56;100.00;61375.16;4961506;28;20116;-35
2021/07/06 01:15:34;;;;;;;5.05;0.80;;;;;;;-148.56;100.00;61375.16;4964417;28;20026;-38
2021/07/06 01:19:04;;;;;;;4.05;0.80;;;;;;;-148.56;100.00;61375.16;4968869;28;20049;-33
2021/07/06 01:22:29;;;;;;;2.50;0.80;;;;;;;-148.56;100.00;61375.16;4969201;28;20048;-32
2021/07/06 01:25:54;;;;;;;2.65;0.50;;;;;;;-148.56;100.00;61375.16;4967210;28;20145;-34
2021/07/06 01:29:20;;;;;;;2.53;0.70;;;;;;;-148.56;100.00;61375.16;4969359;28;20037;-31
2021/07/06 01:32:48;;;;;;;4.15;0.80;;;;;;;-148.56;100.00;61375.16;4966088;28;20075;-32
2021/07/06 01:36:14;;;;;;;3.72;0.60;;;;;;;-148.56;100.00;61375.16;4969088;28;20798;-30
2021/07/06 01:39:39;;;;;;;1.55;0.75;;;;;;;-148.56;100.00;61375.16;4959537;28;20109;-33
2021/07/06 01:43:03;;;;;;;2.35;0.65;;;;;;;-148.56;100.00;61375.16;4957268;28;20635;-30
2021/07/06 01:46:27;;;;;;;0.93;0.52;;;;;;;-148.56;100.00;61375.16;4960413;28;20479;-35
2021/07/06 01:49:51;;;;;;;1.42;0.70;;;;;;;-148.56;100.00;61375.16;4959055;28;20022;-34
2021/07/06 01:53:18;;;;;;;0.93;0.55;;;;;;;-148.56;100.00;61375.16;4969425;28;20556;-34
2021/07/06 01:56:44;;;;;;;2.92;0.95;;;;;;;-148.56;100.00;61375.16;4962433;28;20156;-31
2021/07/06 02:00:08;;;;;;;2.38;0.57;;;;;;;-148.56;100.00;61375.16;4972901;28;20609;-32
2021/07/06 02:03:32;;;;;;;1.15;0.60;;;;;;;-148.56;100.00;61375.16;4961998;28;20042;-31
2021/07/06 02:06:56;;;;;;;0.75;0.50;;;;;;;-148.56;100.00;61375.16;4970477;28;20040;-35
2021/07/06 02:10:20;;;;;;;1.50;0.65;;;;;;;-148.56;100.00;61375.16;4969734;28;21983;-32
2021/07/06 02:13:44;;;;;;;2.25;1.15;;;;;;;-148.56;100.00;61375.16;4962958;28;20032;-31
2021/07/06 02:17:08;;;;;;;2.63;0.70;;;;;;;-148.56;100.00;61375.16;4953737;28;20883;-32
2021/07/06 02:20:32;;;;;;;1.08;0.55;;;;;;;-148.56;100.00;61375.16;4962785;28;20022;-34
2021/07/06 02:23:56;;;;;;;1.92;0.40;;;;;;;-148.56;100.00;61375.16;4967355;28;20033;-33
2021/07/06 02:27:20;;;;;;;2.38;0.80;;;;;;;-148.56;100.00;61375.16;4965489;28;20034;-33
2021/07/06 02:30:44;;;;;;;0.88;0.43;;;;;;;-148.56;100.00;61375.16;4964094;28;20066;-36
2021/07/06 02:34:07;;;;;;;1.08;0.52;;;;;;;-148.56;100.00;61375.16;4964328;28;20449;-27
2021/07/06 02:37:32;;;;;;;2.28;0.50;;;;;;;-148.56;100.00;61375.16;4967751;28;20703;-32
2021/07/06 02:40:55;;;;;;;2.20;0.50;;;;;;;-148.56;100.00;61375.16;4968050;28;20127;-34
2021/07/06 02:44:19;;;;;;;3.17;0.40;;;;;;;-148.56;100.00;61375.16;4957310;28;20023;-32
2021/07/06 02:47:44;;;;;;;0.40;0.40;;;;;;;-148.56;100.00;61375.16;4964140;28;20748;-32
2021/07/06 02:51:08;;;;;;;0.75;0.45;;;;;;;-148.56;100.00;61375.16;4962123;28;20022;-34
2021/07/06 02:54:34;;;;;;;3.13;0.65;;;;;;;-148.56;100.00;61375.16;4958540;28;20529;-34
2021/07/06 02:57:58;;;;;;;3.58;0.73;;;;;;;-148.56;100.00;61375.16;4969209;28;20070;-33
2021/07/06 03:01:25;;;;;;;0.75;0.63;;;;;;;-148.56;100.00;61375.16;4958501;28;20271;-36
2021/07/06 03:04:49;;;;;;;1.27;0.52;;;;;;;-148.56;100.00;61375.16;4965246;28;20101;-32
2021/07/06 03:08:13;;;;;;;1.52;0.77;;;;;;;-148.56;100.00;61375.16;4968173;28;20061;-36
2021/07/06 03:11:37;;;;;;;2.40;0.55;;;;;;;-148.56;100.00;61375.16;4947378;28;20336;-31
2021/07/06 03:15:01;;;;;;;2.53;0.50;;;;;;;-148.56;100.00;61375.16;4956545;28;20058;-33
2021/07/06 03:18:25;;;;;;;0.88;0.50;;;;;;;-148.56;100.00;61375.16;4965817;28;20023;-32
2021/07/06 03:21:49;;;;;;;2.30;0.50;;;;;;;-148.56;100.00;61375.16;4969533;28;20117;-32
2021/07/06 03:25:14;;;;;;;0.75;0.40;;;;;;;-148.56;100.00;61375.16;4966770;28;20202;-35
2021/07/06 03:28:39;;;;;;;1.10;0.40;;;;;;;-148.56;100.00;61375.16;4958383;28;20784;-33
2021/07/06 03:32:04;;;;;;;0.73;0.40;;;;;;;-148.56;100.00;61375.16;4954116;28;20507;-34
2021/07/06 03:35:28;;;;;;;1.05;0.80;;;;;;;-148.56;100.00;61375.16;4968618;28;20034;-30
2021/07/06 03:38:52;;;;;;;0.60;0.40;;;;;;;-148.56;100.00;61375.16;4969169;28;20121;-37
2021/07/06 03:42:16;;;;;;;2.40;0.60;;;;;;;-148.56;100.00;61375.16;4970741;28;20153;-30
2021/07/06 03:45:40;;;;;;;1.38;0.55;;;;;;;-148.56;100.00;61375.16;4962216;28;20073;-29
2021/07/06 03:49:04;;;;;;;1.80;0.50;;;;;;;-148.56;100.00;61375.16;4966514;28;20046;-33
2021/07/06 03:52:31;;;;;;;2.00;0.70;;;;;;;-148.56;100.00;61375.16;4971654;28;20052;-35
2021/07/06 03:55:55;;;;;;;4.15;0.40;;;;;;;-148.56;100.00;61375.16;4969300;28;20220;-36
2021/07/06 03:59:19;;;;;;;2.20;0.40;;;;;;;-148.56;100.00;61375.16;4970697;28;20158;-33
2021/07/06 04:02:43;;;;;;;0.90;0.40;;;;;;;-148.56;100.00;61375.16;4960603;28;20033;-34
2021/07/06 04:06:07;;;;;;;1.17;0.30;;;;;;;-148.56;100.00;61375.16;4966740;28;20135;-33
2021/07/06 04:09:31;;;;;;;1.85;0.40;;;;;;;-148.56;100.00;61375.16;4971659;28;20026;-33
2021/07/06 04:12:55;;;;;;;1.05;0.30;;;;;;;-148.56;100.00;61375.16;4969766;28;20026;-37
2021/07/06 04:16:19;;;;;;;1.15;0.55;;;;;;;-148.56;100.00;61375.16;4962899;28;20026;-30
2021/07/06 04:19:43;;;;;;;1.85;0.50;;;;;;;-148.56;100.00;61375.16;4967623;28;20034;-35
2021/07/06 04:23:07;;;;;;;0.70;0.50;;;;;;;-148.56;100.00;61375.16;4969795;28;20148;-34
2021/07/06 04:26:31;;;;;;;1.30;0.60;;;;;;;-148.56;100.00;61375.16;4970169;28;20161;-33
2021/07/06 04:29:55;;;;;;;1.65;0.50;;;;;;;-148.56;100.00;61375.16;4966989;28;20919;-34
2021/07/06 04:33:19;;;;;;;1.55;0.50;;;;;;;-148.56;100.00;61375.16;4965826;28;20045;-33
2021/07/06 04:36:43;;;;;;;1.15;0.40;;;;;;;-148.56;100.00;61375.16;4974653;28;20879;-33
2021/07/06 04:40:07;;;;;;;1.20;0.63;;;;;;;-148.56;100.00;61375.16;4962630;28;20720;-31
2021/07/06 04:43:31;;;;;;;1.27;0.45;;;;;;;-148.56;100.00;61375.16;4951088;28;20083;-35
2021/07/06 04:46:55;;;;;;;0.40;0.40;;;;;;;-148.56;100.00;61375.16;4957239;28;20061;-29
2021/07/06 04:50:21;;;;;;;4.22;0.40;;;;;;;-148.56;100.00;61375.16;4950268;28;20026;-34
2021/07/06 04:53:45;;;;;;;1.05;0.30;;;;;;;-148.56;100.00;61375.16;4955523;28;20662;-34
2021/07/06 04:57:09;;;;;;;1.05;0.65;;;;;;;-148.56;100.00;61375.16;4968405;28;20038;-34
2021/07/06 05:00:33;;;;;;;1.27;0.40;;;;;;;-148.56;100.00;61375.16;4964221;28;20060;-30
2021/07/06 05:03:57;;;;;;;1.75;0.60;;;;;;;-148.56;100.00;61375.16;4965643;28;20046;-34
2021/07/06 05:07:21;;;;;;;3.60;0.68;;;;;;;-148.56;100.00;61375.16;4966639;28;20033;-37
2021/07/06 05:10:45;;;;;;;0.65;0.55;;;;;;;-148.56;100.00;61375.16;4961534;28;20169;-35
2021/07/06 05:14:09;;;;;;;0.75;0.50;;;;;;;-148.56;100.00;61375.16;4962364;28;20070;-35
2021/07/06 05:17:33;;;;;;;1.92;0.68;;;;;;;-148.56;100.00;61375.16;4963265;28;20226;-35
2021/07/06 05:20:57;;;;;;;3.15;0.40;;;;;;;-148.56;100.00;61375.16;4971951;28;20393;-30
2021/07/06 05:24:20;;;;;;;1.20;0.40;;;;;;;-148.56;100.00;61375.16;4964339;28;20040;-28
2021/07/06 05:27:44;;;;;;;3.88;0.65;;;;;;;-148.56;100.00;61375.16;4968019;28;20880;-33
2021/07/06 05:31:09;;;;;;;0.98;0.35;;;;;;;-148.56;100.00;61375.16;4962790;28;20030;-32
2021/07/06 05:34:32;;;;;;;3.63;0.43;;;;;;;-148.56;100.00;61375.16;4971385;28;20040;-38
2021/07/06 05:37:56;;;;;;;0.88;0.60;;;;;;;-148.56;100.00;61375.16;4964478;28;20064;-35
2021/07/06 05:41:20;;;;;;;0.25;0.25;;;;;;;-148.56;100.00;61375.16;4962120;28;20049;-34
2021/07/06 05:44:45;;;;;;;1.00;0.40;;;;;;;-148.56;100.00;61375.16;4960681;28;20034;-34
2021/07/06 05:48:08;;;;;;;2.05;0.60;;;;;;;-148.56;100.00;61375.16;4960597;28;20033;-29
2021/07/06 05:51:32;;;;;;;1.00;0.30;;;;;;;-148.56;100.00;61375.16;4967799;28;20031;-32
2021/07/06 05:54:56;;;;;;;0.52;0.30;;;;;;;-148.56;100.00;61375.16;4960810;28;20042;-33
2021/07/06 05:58:20;;;;;;;0.47;0.38;;;;;;;-148.56;100.00;61375.16;4963561;28;20045;-32
2021/07/06 06:01:44;;;;;;;3.25;0.40;;;;;;;-148.56;100.00;61375.16;4964830;28;20129;-38
2021/07/06 06:05:08;;;;;;;2.83;0.60;;;;;;;-148.56;100.00;61375.16;4968453;28;20070;-31
2021/07/06 06:08:36;;;;;;;5.05;0.70;;;;;;;-148.56;100.00;61375.16;4964681;28;20637;-34
2021/07/06 06:12:03;;;;;;;1.20;0.45;;;;;;;-148.56;100.00;61375.16;4968763;28;20033;-30
2021/07/06 06:15:27;;;;;;;0.68;0.40;;;;;;;-148.56;100.00;61375.16;4958035;28;20143;-31
2021/07/06 06:18:55;;;;;;;0.63;0.40;;;;;;;-148.56;100.00;61375.16;4968683;28;20041;-35
2021/07/06 06:22:20;;;;;;;0.52;0.30;;;;;;;-148.56;100.00;61375.16;4975949;28;20037;-34
2021/07/06 06:25:43;;;;;;;2.58;0.60;;;;;;;-148.56;100.00;61375.16;4959452;28;20361;-29
2021/07/06 06:29:07;;;;;;;1.67;0.50;;;;;;;-148.56;100.00;61375.16;4959451;28;20056;-36
2021/07/06 06:32:31;;;;;;;2.10;0.40;;;;;;;-148.56;100.00;61375.16;4961810;28;20136;-37
2021/07/06 06:35:55;;;;;;;7.68;1.15;;;;;;;-148.56;100.00;61375.16;4958093;28;20030;-36
2021/07/06 06:39:19;;;;;;;8.23;2.13;;;;;;;-148.56;100.00;61375.16;4956737;28;20057;-33
2021/07/06 06:42:43;;;;;;;7.75;2.70;;;;;;;-148.56;100.00;61375.16;4957851;28;20075;-32
2021/07/06 06:46:08;;;;;;;5.47;2.10;;;;;;;-148.56;100.00;61375.16;4962481;28;20088;-33
2021/07/06 06:49:32;;;;;;;4.15;1.92;;;;;;;-148.56;100.00;61375.16;4957718;28;21005;-37
2021/07/06 06:52:56;;;;;;;10.75;1.70;;;;;;;-148.56;100.00;61375.16;4957879;28;20550;-36
2021/07/06 06:56:20;;;;;;;5.32;1.98;;;;;;;-148.56;100.00;61375.16;4958875;28;20066;-36
2021/07/06 06:59:44;;;;;;;4.75;1.48;;;;;;;-148.56;100.00;61375.16;4957627;28;20128;-33
2021/07/06 07:03:07;;;;;;;13.05;2.03;;;;;;;-148.56;100.00;61375.16;4958003;28;20042;-34
2021/07/06 07:06:32;;;;;;;6.20;1.63;;;;;;;-148.56;100.00;61375.16;4955465;28;20475;-34
2021/07/06 07:09:56;;;;;;;5.60;1.58;;;;;;;-148.56;100.00;61375.16;4963294;28;20022;-33
2021/07/06 07:13:20;;;;;;;3.25;1.67;;;;;;;-148.56;100.00;61375.16;4964131;28;20116;-33
2021/07/06 07:16:46;;;;;;;2.97;1.20;;;;;;;-148.56;100.00;61375.16;4961158;28;20022;-35
2021/07/06 07:20:11;;;;;;;5.05;1.27;;;;;;;-148.56;100.00;61375.16;4960183;28;20144;-32
2021/07/06 07:23:35;;;;;;;2.70;1.50;;;;;;;-148.56;100.00;61375.16;4960167;28;20648;-34
2021/07/06 07:26:59;;;;;;;3.05;1.60;;;;;;;-148.56;100.00;61375.16;4963949;28;20034;-34
2021/07/06 07:30:23;;;;;;;5.28;1.30;;;;;;;-148.56;100.00;61375.16;4960940;28;20054;-33
2021/07/06 07:33:47;;;;;;;6.72;1.35;;;;;;;-148.56;100.00;61375.16;4956667;28;20051;-30
2021/07/06 07:37:11;;;;;;;9.68;1.58;;;;;;;-148.56;100.00;61375.16;4962627;28;20029;-34
2021/07/06 07:40:35;;;;;;;6.32;1.20;;;;;;;-148.56;100.00;61375.16;4962267;28;20161;-32
2021/07/06 07:43:59;;;;;;;6.38;1.83;;;;;;;-148.56;100.00;61375.16;4963308;28;20038;-32
2021/07/06 07:47:23;;;;;;;2.65;1.05;;;;;;;-148.56;100.00;61375.16;4963073;28;20392;-32
2021/07/06 07:50:47;;;;;;;2.88;1.23;;;;;;;-148.56;100.00;61375.16;4956823;28;20026;-29
2021/07/06 07:54:11;;;;;;;6.05;1.30;;;;;;;-148.56;100.00;61375.16;4963566;28;20029;-29
2021/07/06 07:57:35;;;;;;;6.25;1.70;;;;;;;-148.56;100.00;61375.16;4959600;28;20316;-35
2021/07/06 08:00:59;;;;;;;4.00;1.75;;;;;;;-148.56;100.00;61375.16;4957230;28;20638;-36
2021/07/06 08:04:23;;;;;;;3.92;1.70;;;;;;;-148.56;100.00;61375.16;4937040;28;21023;-32
2021/07/06 08:07:49;;;;;;;5.00;1.80;;;;;;;-148.56;100.00;61375.16;4937225;28;20054;-29
2021/07/06 08:11:13;;;;;;;5.65;2.10;;;;;;;-148.56;100.00;61375.16;4936473;28;20022;-32
2021/07/06 08:14:37;;;;;;;4.28;1.63;;;;;;;-148.56;100.00;61375.16;4937895;28;20041;-32
2021/07/06 08:18:01;;;;;;;3.80;1.60;;;;;;;-148.56;100.00;61375.16;4938040;28;20026;-34
2021/07/06 08:21:25;;;;;;;9.38;2.10;;;;;;;-148.56;100.00;61375.16;4941782;28;20777;-33
2021/07/06 08:24:49;;;;;;;3.28;1.30;;;;;;;-148.56;100.00;61375.16;4941506;28;20066;-36
2021/07/06 08:28:13;;;;;;;5.38;1.30;;;;;;;-148.56;100.00;61375.16;4937324;28;20153;-34
2021/07/06 08:31:37;;;;;;;3.95;1.42;;;;;;;-148.56;100.00;61375.16;4937567;28;20023;-36
2021/07/06 08:35:01;;;;;;;6.57;1.42;;;;;;;-148.56;100.00;61375.16;4937976;28;20197;-32
2021/07/06 08:38:25;;;;;;;4.32;1.10;;;;;;;-148.56;100.00;61375.16;4939102;28;20035;-35
2021/07/06 08:41:48;;;;;;;3.67;1.35;;;;;;;-148.56;100.00;61375.16;4938951;28;20956;-30
2021/07/06 08:45:12;;;;;;;7.20;1.33;;;;;;;-148.56;100.00;61375.16;4935659;28;20039;-29
2021/07/06 08:48:37;;;;;;;3.70;1.25;;;;;;;-148.56;100.00;61375.16;4932847;28;20966;-34
2021/07/06 08:52:02;;;;;;;7.55;1.40;;;;;;;-148.56;100.00;61375.16;4927625;28;20074;-30
2021/07/06 08:55:26;;;;;;;6.38;1.63;;;;;;;-148.56;100.00;61375.16;4937104;28;20038;-32
2021/07/06 08:58:50;;;;;;;8.85;1.30;;;;;;;-148.56;100.00;61375.16;4936999;28;20481;-34
2021/07/06 09:02:14;;;;;;;8.23;1.50;;;;;;;-148.56;100.00;61375.16;4933150;28;20116;-33
2021/07/06 09:05:42;;;;;;;12.80;2.10;;;;;;;-148.56;100.00;61375.16;4940290;28;20093;-29
2021/07/06 09:09:17;;;;;;;13.00;2.53;;;;;;;-148.56;100.00;61375.16;4940278;28;20061;-35
2021/07/06 09:12:44;;;;;;;10.80;2.60;;;;;;;-148.56;100.00;61375.16;4941080;28;20054;-31
2021/07/06 09:16:19;;;;;;;11.48;2.85;;;;;;;-148.56;100.00;61375.16;4943239;28;20085;-32
2021/07/06 09:19:44;;;;;;;12.88;3.28;;;;;;;-148.56;100.00;61375.16;4939156;28;20031;-27
2021/07/06 09:23:49;;;;;;;7.60;2.75;;;;;;;-148.56;100.00;61375.16;4943724;28;20137;-31
2021/07/06 09:27:22;;;;;;;11.32;3.00;;;;;;;-148.56;100.00;61375.16;4955642;28;20047;-32
2021/07/06 09:31:20;;;;;;;9.73;2.78;;;;;;;-148.56;100.00;61375.16;4958391;28;20034;-32
2021/07/06 09:34:48;;;;;;;11.63;3.05;;;;;;;-148.56;100.00;61375.16;4942761;28;20049;-34
2021/07/06 09:38:15;;;;;;;7.22;2.65;;;;;;;-148.56;100.00;61375.16;4950751;28;20130;-30
2021/07/06 09:41:41;;;;;;;7.85;2.53;;;;;;;-148.56;100.00;61375.16;4944583;28;20133;-30
2021/07/06 09:45:19;;;;;;;9.88;2.70;;;;;;;-148.56;100.00;61375.16;4947732;28;20502;-33
2021/07/06 09:49:01;;;;;;;7.93;2.45;;;;;;;-148.56;100.00;61375.16;4928813;28;20537;-35
2021/07/06 09:51:26;;;;;;;5.93;2.47;;;;;;;29.38;37.17;96155.53;4934886;28;20018;-36
2021/07/06 09:53:55;;;;;;;7.53;2.95;;;;;;;29.37;37.30;96156.47;4936898;28;20026;-32
2021/07/06 09:56:26;;;;;;;11.02;3.03;;;;;;;29.37;37.30;96145.94;4937189;28;20109;-31
2021/07/06 09:59:03;;;;;;;8.95;2.22;;;;;;;29.38;37.47;96147.63;4945287;28;20146;-32
2021/07/06 10:01:28;;;;;;;6.70;2.35;;;;;;;29.37;37.19;96148.56;4936269;28;20047;-32
2021/07/06 10:03:56;;;;;;;6.70;2.00;;;;;;;29.37;37.25;96156.47;4937429;28;20085;-32
2021/07/06 10:06:29;;;;;;;5.72;2.20;;;;;;;29.40;37.36;96150.16;4942095;28;20616;-34
2021/07/06 10:08:55;;;;;;;4.50;2.40;;;;;;;29.40;37.38;96150.97;4943860;28;20841;-35
2021/07/06 10:11:21;;;;;;;6.47;2.30;;;;;;;29.39;37.24;96154.59;4942431;28;20258;-33
2021/07/06 10:13:46;;;;;;;5.60;2.22;;;;;;;29.40;37.44;96135.13;4942101;28;20030;-32
2021/07/06 10:16:15;;;;;;;5.75;2.38;;;;;;;29.41;37.21;96147.38;4922217;28;20381;-30
2021/07/06 10:18:41;;;;;;;7.15;2.20;;;;;;;29.42;37.22;96154.34;4936187;28;20619;-31
2021/07/06 10:21:06;;;;;;;7.53;2.50;;;;;;;29.42;37.22;96170.19;4942529;28;20157;-34
2021/07/06 10:23:32;;;;;;;7.97;2.63;;;;;;;29.42;37.33;96154.34;4940386;28;20425;-32
2021/07/06 10:25:59;;;;;;;5.13;2.03;;;;;;;29.43;37.45;96140.19;4926918;28;20027;-32
2021/07/06 10:28:25;;;;;;;5.57;2.20;;;;;;;29.44;37.39;96131.31;4942486;28;20146;-31
2021/07/06 10:30:51;;;;;;;6.22;1.80;;;;;;;29.45;37.26;96126.88;4935568;28;20043;-31
2021/07/06 10:33:29;;;;;;;5.80;1.85;;;;;;;29.45;37.52;96138.25;4941529;28;20059;-33
2021/07/06 10:35:55;;;;;;;5.88;2.17;;;;;;;29.46;37.49;96126.75;4944844;28;20490;-31
2021/07/06 10:38:29;;;;;;;5.60;2.40;;;;;;;29.46;37.56;96103.00;4942674;28;20034;-29
2021/07/06 10:41:07;;;;;;;5.22;2.38;;;;;;;29.46;37.35;96116.19;4940463;28;20676;-33
2021/07/06 10:43:40;;;;;;;5.88;2.05;;;;;;;29.48;37.20;96121.31;4943198;28;20226;-32
2021/07/06 10:46:21;;;;;;;4.63;1.90;;;;;;;29.48;37.42;96131.88;4942476;28;20034;-33
2021/07/06 10:48:46;;;;;;;6.55;1.83;;;;;;;29.50;37.36;96134.41;4938715;28;20072;-30
2021/07/06 10:51:37;;;;;;;4.78;2.08;;;;;;;29.49;37.42;96120.38;4940231;28;20117;-28
2021/07/06 10:54:11;;;;;;;4.15;1.80;;;;;;;29.51;37.08;96126.41;4943970;28;20031;-35
2021/07/06 10:56:38;;;;;;;4.95;2.00;;;;;;;29.52;37.42;96145.72;4939991;28;20035;-30
2021/07/06 10:59:05;;;;;;;4.25;1.80;;;;;;;29.46;37.40;96155.78;4942356;28;20191;-31
2021/07/06 11:01:58;;;;;;;4.82;2.10;;;;;;;29.52;37.47;96164.22;4936661;28;20166;-31
2021/07/06 11:04:50;;;;;;;4.40;1.92;;;;;;;29.53;37.34;96161.47;4938808;28;20069;-35
2021/07/06 11:07:30;;;;;;;4.35;1.70;;;;;;;29.54;37.39;96154.34;4936982;28;20046;-32
2021/07/06 11:09:55;;;;;;;4.65;1.92;;;;;;;29.54;37.37;96151.72;4938943;28;20049;-31
2021/07/06 11:12:37;;;;;;;4.65;1.90;;;;;;;29.53;37.35;96150.91;4931793;28;20038;-35
2021/07/06 11:15:04;;;;;;;4.53;1.77;;;;;;;29.54;37.43;96160.50;4932153;28;20033;-29
2021/07/06 11:17:36;;;;;;;3.50;1.75;;;;;;;29.55;37.83;96148.13;4931664;28;20552;-28
2021/07/06 11:20:05;;;;;;;5.47;1.23;;;;;;;29.54;37.38;96130.59;4940330;28;20035;-32
2021/07/06 11:22:51;;;;;;;2.20;0.88;;;;;;;29.51;37.19;96142.25;4942289;28;20646;-34
2021/07/06 11:25:20;;;;;;;3.50;0.82;;;;;;;29.50;36.85;96153.75;4940527;28;20072;-33
2021/07/06 11:28:03;;;;;;;3.83;0.90;;;;;;;29.48;36.85;96167.06;4932722;28;20062;-30
2021/07/06 11:30:29;;;;;;;1.20;0.52;;;;;;;29.47;36.77;96165.38;4939513;28;20030;-31
2021/07/06 11:33:11;;;;;;;1.25;0.40;;;;;;;29.46;36.42;96166.34;4943606;28;20034;-30
2021/07/06 11:35:54;;;;;;;2.45;0.55;;;;;;;29.44;36.59;96162.13;4940957;28;20041;-32
2021/07/06 11:38:25;;;;;;;1.40;0.50;;;;;;;29.42;36.46;96170.19;4941723;28;20093;-30
2021/07/06 11:40:52;;;;;;;1.92;0.43;;;;;;;29.38;36.25;96163.47;4941443;28;20592;-27
2021/07/06 11:43:18;;;;;;;1.08;0.38;;;;;;;29.37;36.40;96182.88;4938376;28;20023;-29
2021/07/06 11:45:56;;;;;;;2.17;0.43;;;;;;;29.34;36.63;96209.53;4927673;28;20037;-35
2021/07/06 11:48:23;;;;;;;4.07;0.30;;;;;;;29.30;36.78;96218.63;4924107;28;20117;-36
2021/07/06 11:50:48;;;;;;;0.60;0.38;;;;;;;29.26;36.79;96231.22;4926170;28;20022;-38
2021/07/06 11:53:14;;;;;;;0.82;0.30;;;;;;;29.32;36.72;96243.94;4925881;28;20041;-33
2021/07/06 11:55:41;;;;;;;1.55;0.30;;;;;;;29.28;37.05;96237.22;4935050;28;20034;-30
2021/07/06 11:58:08;;;;;;;0.80;0.40;;;;;;;29.34;36.91;96241.19;4939072;28;20487;-35
2021/07/06 12:00:35;;;;;;;0.85;0.35;;;;;;;29.41;36.69;96231.81;4940831;28;20054;-39
2021/07/06 12:03:14;;;;;;;5.38;0.40;;;;;;;29.45;36.69;96241.19;4953466;28;20031;-40
2021/07/06 12:05:39;;;;;;;1.75;0.28;;;;;;;29.55;36.79;96237.88;4955705;28;20563;-31
2021/07/06 12:08:19;;;;;;;1.60;0.30;;;;;;;29.63;36.46;96219.63;4955949;28;20026;-30
2021/07/06 12:10:54;;;;;;;0.20;0.20;;;;;;;29.74;36.29;96221.44;4956532;28;20173;-35
2021/07/06 12:13:20;;;;;;;0.60;0.60;;;;;;;29.82;36.09;96207.63;4950461;28;20038;-35
2021/07/06 12:15:46;;;;;;;0.85;0.50;;;;;;;29.90;36.07;96199.94;4958153;28;20027;-30
2021/07/06 12:18:12;;;;;;;0.98;0.70;;;;;;;29.97;35.49;96187.06;4961940;28;20132;-32
2021/07/06 12:20:37;;;;;;;4.10;1.50;;;;;;;30.04;35.54;96185.63;4952616;28;20148;-35
2021/07/06 12:23:03;;;;;;;9.40;2.85;;;;;;;30.11;35.04;96191.25;4953108;28;20022;-36
2021/07/06 12:25:28;;;;;;;7.53;3.78;;;;;;;30.16;34.91;96198.84;4954817;28;20037;-34
2021/07/06 12:27:53;;;;;;;17.98;6.85;;;;;;;30.20;34.96;96190.53;4956541;28;20045;-37
2021/07/06 12:30:19;;;;;;;14.60;6.60;;;;;;;30.27;34.84;96184.75;4955144;28;20417;-31
2021/07/06 12:32:45;;;;;;;11.38;4.78;;;;;;;30.32;34.77;96193.97;4956082;28;20041;-36
2021/07/06 12:35:11;;;;;;;10.65;4.63;;;;;;;30.37;34.53;96230.63;4959381;28;20058;-33
2021/07/06 12:37:36;;;;;;;24.60;8.80;;;;;;;30.40;34.66;96233.00;4957306;28;20039;-36
2021/07/06 12:40:04;;;;;;;15.82;6.82;;;;;;;30.45;35.48;96235.28;4951613;28;20052;-33
2021/07/06 12:42:40;;;;;;;19.85;7.93;;;;;;;30.48;35.57;96241.16;4950241;28;20034;-35
2021/07/06 12:45:08;;;;;;;22.30;8.38;;;;;;;30.54;35.64;96244.28;4947809;28;20528;-34
2021/07/06 12:47:37;;;;;;;23.38;9.43;;;;;;;30.55;35.53;96238.03;4953195;28;20037;-39
2021/07/06 12:50:19;;;;;;;29.83;11.77;;;;;;;30.57;35.32;96242.22;4966103;28;20026;-34
2021/07/06 12:52:45;;;;;;;;;;;;;;;30.58;34.92;96235.09;4966547;28;20120;-34
2021/07/06 12:55:14;;;;;;;33.60;12.45;;;;;;;30.59;35.10;96247.38;4962371;28;20334;-35
2021/07/06 12:57:40;;;;;;;37.75;12.80;;;;;;;30.57;35.24;96257.22;4966473;28;20038;-33
2021/07/06 13:00:11;;;;;;;37.28;13.52;;;;;;;30.55;35.21;96267.94;4971803;28;20028;-33
2021/07/06 13:02:36;;;;;;;33.72;12.90;;;;;;;30.53;35.01;96269.88;4965335;28;20022;-33
2021/07/06 13:05:02;;;;;;;32.55;13.68;;;;;;;30.52;35.05;96257.63;4972849;28;20065;-31
2021/07/06 13:07:29;;;;;;;32.42;13.43;;;;;;;30.50;35.13;96249.81;4974418;28;20039;-35
2021/07/06 13:10:07;;;;;;;33.50;12.63;;;;;;;30.48;35.39;96238.50;4970309;28;20511;-33
2021/07/06 13:12:33;;;;;;;33.15;13.70;;;;;;;30.46;35.23;96227.22;4967022;28;20180;-31
2021/07/06 13:14:59;;;;;;;33.40;13.15;;;;;;;30.44;35.42;96234.44;4964224;28;20962;-32
2021/07/06 13:17:25;;;;;;;35.00;13.00;;;;;;;30.42;35.60;96241.66;4965557;28;20034;-34
2021/07/06 13:20:01;;;;;;;28.42;12.25;;;;;;;30.39;35.62;96241.91;4970419;28;20034;-33
2021/07/06 13:22:26;;;;;;;36.10;12.77;;;;;;;30.37;35.50;96247.31;4967992;28;20030;-32
2021/07/06 13:24:51;;;;;;;32.58;12.57;;;;;;;30.35;35.67;96257.19;4968088;28;20582;-34
2021/07/06 13:27:17;;;;;;;29.17;11.93;;;;;;;30.32;35.59;96262.69;4965134;28;20136;-34
2021/07/06 13:29:42;;;;;;;32.20;11.93;;;;;;;30.31;35.67;96265.47;4973371;28;20038;-33
2021/07/06 13:32:08;;;;;;;26.27;10.70;;;;;;;30.28;35.82;96279.78;4964712;28;20919;-33
2021/07/06 13:34:33;;;;;;;25.33;10.63;;;;;;;30.25;35.87;96267.63;4970579;28;20109;-32
2021/07/06 13:36:58;;;;;;;30.08;11.35;;;;;;;30.22;36.06;96267.91;4971449;28;20042;-34
2021/07/06 13:39:24;;;;;;;28.08;10.20;;;;;;;30.21;36.02;96275.94;4969671;28;20041;-32
2021/07/06 13:41:49;;;;;;;25.67;10.45;;;;;;;30.20;36.18;96268.97;4974114;28;20022;-32
2021/07/06 13:44:14;;;;;;;27.88;10.43;;;;;;;30.16;36.36;96257.81;4969529;28;20106;-34
2021/07/06 13:46:40;;;;;;;26.40;10.38;;;;;;;30.14;36.51;96266.81;4968794;28;20037;-32
2021/07/06 13:49:06;;;;;;;26.15;10.73;;;;;;;30.12;36.51;96277.50;4969776;28;20031;-32
2021/07/06 13:51:31;;;;;;;28.13;10.30;;;;;;;30.09;36.71;96265.34;4969620;28;20022;-34
2021/07/06 13:54:03;;;;;;;25.13;9.70;;;;;;;30.07;36.53;96269.94;4967183;28;20030;-35
2021/07/06 13:56:28;;;;;;;22.42;9.60;;;;;;;30.08;36.54;96270.75;4965414;28;20026;-38
2021/07/06 13:58:53;;;;;;;27.52;10.05;;;;;;;30.05;36.78;96260.44;4971230;28;20697;-34
2021/07/06 14:01:19;;;;;;;23.40;9.68;;;;;;;30.04;36.64;96271.97;4967792;28;20050;-30